sensor_id;sensor_type;location;lat;lon;timestamp;temperature;humidity
20998;DHT22;10657;51.276;6.390;2024-02-28T00:00:40;4.00;99.90
20998;DHT22;10657;51.276;6.390;2024-02-28T00:03:07;4.00;99.90
20998;DHT22;10657;51.276;6.390;2024-02-28T00:05:34;4.00;99.90
20998;DHT22;10657;51.276;6.390;2024-02-28T00:08:00;4.00;99.90
20998;DHT22;10657;51.276;6.390;2024-02-28T00:10:27;4.10;99.90
20998;DHT22;10657;51.276;6.390;2024-02-28T00:12:54;4.00;99.90
20998;DHT22;10657;51.276;6.390;2024-02-28T00:15:21;4.10;99.90
20998;DHT22;10657;51.276;6.390;2024-02-28T00:17:52;4.00;99.90
20998;DHT22;10657;51.276;6.390;2024-02-28T00:20:19;4.00;99.90
20998;DHT22;10657;51.276;6.390;2024-02-28T00:22:45;3.90;99.90
20998;DHT22;10657;51.276;6.390;2024-02-28T00:25:12;3.90;99.90
20998;DHT22;10657;51.276;6.390;2024-02-28T00:27:40;3.90;99.90
20998;DHT22;10657;51.276;6.390;2024-02-28T00:30:07;4.10;99.90
20998;DHT22;10657;51.276;6.390;2024-02-28T00:32:34;3.90;99.90
20998;DHT22;10657;51.276;6.390;2024-02-28T00:35:01;3.70;99.90
20998;DHT22;10657;51.276;6.390;2024-02-28T00:37:27;3.70;99.90
20998;DHT22;10657;51.276;6.390;2024-02-28T00:39:54;3.70;99.90
20998;DHT22;10657;51.276;6.390;2024-02-28T00:42:22;3.70;99.90
20998;DHT22;10657;51.276;6.390;2024-02-28T00:44:48;3.80;99.90
20998;DHT22;10657;51.276;6.390;2024-02-28T00:47:15;3.80;99.90
20998;DHT22;10657;51.276;6.390;2024-02-28T00:49:42;3.90;99.90
20998;DHT22;10657;51.276;6.390;2024-02-28T00:52:08;3.90;99.90
20998;DHT22;10657;51.276;6.390;2024-02-28T00:54:35;3.90;99.90
20998;DHT22;10657;51.276;6.390;2024-02-28T00:57:02;4.00;99.90
20998;DHT22;10657;51.276;6.390;2024-02-28T00:59:29;3.90;99.90
20998;DHT22;10657;51.276;6.390;2024-02-28T01:01:56;4.00;99.90
20998;DHT22;10657;51.276;6.390;2024-02-28T01:04:22;3.60;99.90
20998;DHT22;10657;51.276;6.390;2024-02-28T01:06:49;3.70;99.90
20998;DHT22;10657;51.276;6.390;2024-02-28T01:09:16;3.70;99.90
20998;DHT22;10657;51.276;6.390;2024-02-28T01:11:42;3.70;99.90
20998;DHT22;10657;51.276;6.390;2024-02-28T01:14:09;3.70;99.90
20998;DHT22;10657;51.276;6.390;2024-02-28T01:16:36;3.70;99.90
20998;DHT22;10657;51.276;6.390;2024-02-28T01:19:02;3.70;99.90
20998;DHT22;10657;51.276;6.390;2024-02-28T01:21:29;3.80;99.90
20998;DHT22;10657;51.276;6.390;2024-02-28T01:23:56;3.70;99.90
20998;DHT22;10657;51.276;6.390;2024-02-28T01:26:23;3.70;99.90
20998;DHT22;10657;51.276;6.390;2024-02-28T01:28:50;3.70;99.90
20998;DHT22;10657;51.276;6.390;2024-02-28T01:31:16;3.80;99.90
20998;DHT22;10657;51.276;6.390;2024-02-28T01:33:43;3.80;99.90
20998;DHT22;10657;51.276;6.390;2024-02-28T01:36:11;3.80;99.90
20998;DHT22;10657;51.276;6.390;2024-02-28T01:38:38;3.90;99.90
20998;DHT22;10657;51.276;6.390;2024-02-28T01:41:04;3.90;99.90
20998;DHT22;10657;51.276;6.390;2024-02-28T01:43:32;3.80;99.90
20998;DHT22;10657;51.276;6.390;2024-02-28T01:46:05;3.80;99.90
20998;DHT22;10657;51.276;6.390;2024-02-28T01:48:38;3.80;99.90
20998;DHT22;10657;51.276;6.390;2024-02-28T01:51:05;3.70;99.90
20998;DHT22;10657;51.276;6.390;2024-02-28T01:53:32;3.80;99.90
20998;DHT22;10657;51.276;6.390;2024-02-28T01:55:59;3.50;99.90
20998;DHT22;10657;51.276;6.390;2024-02-28T01:58:25;3.50;99.90
20998;DHT22;10657;51.276;6.390;2024-02-28T02:00:53;3.40;99.90
20998;DHT22;10657;51.276;6.390;2024-02-28T02:03:20;3.40;99.90
20998;DHT22;10657;51.276;6.390;2024-02-28T02:05:47;3.20;99.90
20998;DHT22;10657;51.276;6.390;2024-02-28T02:08:14;3.30;99.90
20998;DHT22;10657;51.276;6.390;2024-02-28T02:10:41;3.20;99.90
20998;DHT22;10657;51.276;6.390;2024-02-28T02:13:08;3.00;99.90
20998;DHT22;10657;51.276;6.390;2024-02-28T02:15:35;3.10;99.90
20998;DHT22;10657;51.276;6.390;2024-02-28T02:18:01;3.10;99.90
20998;DHT22;10657;51.276;6.390;2024-02-28T02:20:30;2.90;99.90
20998;DHT22;10657;51.276;6.390;2024-02-28T02:22:58;3.10;99.90
20998;DHT22;10657;51.276;6.390;2024-02-28T02:25:25;3.20;99.90
20998;DHT22;10657;51.276;6.390;2024-02-28T02:27:52;3.30;99.90
20998;DHT22;10657;51.276;6.390;2024-02-28T02:30:18;3.30;99.90
20998;DHT22;10657;51.276;6.390;2024-02-28T02:32:45;3.40;99.90
20998;DHT22;10657;51.276;6.390;2024-02-28T02:35:12;3.20;99.90
20998;DHT22;10657;51.276;6.390;2024-02-28T02:37:43;3.10;99.90
20998;DHT22;10657;51.276;6.390;2024-02-28T02:40:12;3.00;99.90
20998;DHT22;10657;51.276;6.390;2024-02-28T02:42:39;3.20;99.90
20998;DHT22;10657;51.276;6.390;2024-02-28T02:45:09;3.30;99.90
20998;DHT22;10657;51.276;6.390;2024-02-28T02:47:36;3.10;99.90
20998;DHT22;10657;51.276;6.390;2024-02-28T02:50:05;3.00;99.90
20998;DHT22;10657;51.276;6.390;2024-02-28T02:52:31;3.00;99.90
20998;DHT22;10657;51.276;6.390;2024-02-28T02:54:58;3.00;99.90
20998;DHT22;10657;51.276;6.390;2024-02-28T02:57:25;2.80;99.90
20998;DHT22;10657;51.276;6.390;2024-02-28T02:59:52;2.70;99.90
20998;DHT22;10657;51.276;6.390;2024-02-28T03:02:18;2.80;99.90
20998;DHT22;10657;51.276;6.390;2024-02-28T03:04:45;2.70;99.90
20998;DHT22;10657;51.276;6.390;2024-02-28T03:07:12;3.00;99.90
20998;DHT22;10657;51.276;6.390;2024-02-28T03:09:38;2.90;99.90
20998;DHT22;10657;51.276;6.390;2024-02-28T03:12:05;3.00;99.90
20998;DHT22;10657;51.276;6.390;2024-02-28T03:14:32;3.10;99.90
20998;DHT22;10657;51.276;6.390;2024-02-28T03:16:59;3.10;99.90
20998;DHT22;10657;51.276;6.390;2024-02-28T03:19:26;3.20;99.90
20998;DHT22;10657;51.276;6.390;2024-02-28T03:21:52;3.20;99.90
20998;DHT22;10657;51.276;6.390;2024-02-28T03:24:19;3.20;99.90
20998;DHT22;10657;51.276;6.390;2024-02-28T03:26:46;2.90;99.90
20998;DHT22;10657;51.276;6.390;2024-02-28T03:29:13;3.00;99.90
20998;DHT22;10657;51.276;6.390;2024-02-28T03:31:40;3.00;99.90
20998;DHT22;10657;51.276;6.390;2024-02-28T03:34:06;3.20;99.90
20998;DHT22;10657;51.276;6.390;2024-02-28T03:36:33;3.40;99.90
20998;DHT22;10657;51.276;6.390;2024-02-28T03:39:00;3.40;99.90
20998;DHT22;10657;51.276;6.390;2024-02-28T03:41:26;3.30;99.90
20998;DHT22;10657;51.276;6.390;2024-02-28T03:43:53;3.20;99.90
20998;DHT22;10657;51.276;6.390;2024-02-28T03:46:20;3.50;99.90
20998;DHT22;10657;51.276;6.390;2024-02-28T03:48:48;3.50;99.90
20998;DHT22;10657;51.276;6.390;2024-02-28T03:51:14;3.50;99.90
20998;DHT22;10657;51.276;6.390;2024-02-28T03:53:41;3.60;99.90
20998;DHT22;10657;51.276;6.390;2024-02-28T03:56:08;3.60;99.90
20998;DHT22;10657;51.276;6.390;2024-02-28T03:58:35;3.20;99.90
20998;DHT22;10657;51.276;6.390;2024-02-28T04:01:02;3.40;99.90
20998;DHT22;10657;51.276;6.390;2024-02-28T04:03:29;3.20;99.90
20998;DHT22;10657;51.276;6.390;2024-02-28T04:05:55;3.20;99.90
20998;DHT22;10657;51.276;6.390;2024-02-28T04:08:22;3.20;99.90
20998;DHT22;10657;51.276;6.390;2024-02-28T04:10:49;3.30;99.90
20998;DHT22;10657;51.276;6.390;2024-02-28T04:13:17;3.10;99.90
20998;DHT22;10657;51.276;6.390;2024-02-28T04:15:43;3.20;99.90
20998;DHT22;10657;51.276;6.390;2024-02-28T04:18:12;3.30;99.90
20998;DHT22;10657;51.276;6.390;2024-02-28T04:20:39;3.20;99.90
20998;DHT22;10657;51.276;6.390;2024-02-28T04:23:06;3.40;99.90
20998;DHT22;10657;51.276;6.390;2024-02-28T04:25:33;3.10;99.90
20998;DHT22;10657;51.276;6.390;2024-02-28T04:28:00;3.10;99.90
20998;DHT22;10657;51.276;6.390;2024-02-28T04:30:27;3.10;99.90
20998;DHT22;10657;51.276;6.390;2024-02-28T04:32:54;3.40;99.90
20998;DHT22;10657;51.276;6.390;2024-02-28T04:35:20;3.40;99.90
20998;DHT22;10657;51.276;6.390;2024-02-28T04:37:47;3.30;99.90
20998;DHT22;10657;51.276;6.390;2024-02-28T04:40:14;3.40;99.90
20998;DHT22;10657;51.276;6.390;2024-02-28T04:42:42;3.50;99.90
20998;DHT22;10657;51.276;6.390;2024-02-28T04:45:11;3.40;99.90
20998;DHT22;10657;51.276;6.390;2024-02-28T04:47:38;3.20;99.90
20998;DHT22;10657;51.276;6.390;2024-02-28T04:50:10;3.00;99.90
20998;DHT22;10657;51.276;6.390;2024-02-28T04:52:37;3.00;99.90
20998;DHT22;10657;51.276;6.390;2024-02-28T04:55:07;3.10;99.90
20998;DHT22;10657;51.276;6.390;2024-02-28T04:57:34;3.30;99.90
20998;DHT22;10657;51.276;6.390;2024-02-28T05:00:01;3.30;99.90
20998;DHT22;10657;51.276;6.390;2024-02-28T05:02:27;3.40;99.90
20998;DHT22;10657;51.276;6.390;2024-02-28T05:04:54;3.40;99.90
20998;DHT22;10657;51.276;6.390;2024-02-28T05:07:21;3.60;99.90
20998;DHT22;10657;51.276;6.390;2024-02-28T05:09:48;3.70;99.90
20998;DHT22;10657;51.276;6.390;2024-02-28T05:12:15;3.60;99.90
20998;DHT22;10657;51.276;6.390;2024-02-28T05:14:42;3.80;99.90
20998;DHT22;10657;51.276;6.390;2024-02-28T05:17:09;3.60;99.90
20998;DHT22;10657;51.276;6.390;2024-02-28T05:19:36;3.50;99.90
20998;DHT22;10657;51.276;6.390;2024-02-28T05:22:02;3.60;99.90
20998;DHT22;10657;51.276;6.390;2024-02-28T05:24:29;3.40;99.90
20998;DHT22;10657;51.276;6.390;2024-02-28T05:26:56;3.50;99.90
20998;DHT22;10657;51.276;6.390;2024-02-28T05:29:23;3.50;99.90
20998;DHT22;10657;51.276;6.390;2024-02-28T05:31:49;3.40;99.90
20998;DHT22;10657;51.276;6.390;2024-02-28T05:34:16;3.40;99.90
20998;DHT22;10657;51.276;6.390;2024-02-28T05:36:43;3.40;99.90
20998;DHT22;10657;51.276;6.390;2024-02-28T05:39:10;3.40;99.90
20998;DHT22;10657;51.276;6.390;2024-02-28T05:41:36;3.40;99.90
20998;DHT22;10657;51.276;6.390;2024-02-28T05:44:03;3.30;99.90
20998;DHT22;10657;51.276;6.390;2024-02-28T05:46:30;3.20;99.90
20998;DHT22;10657;51.276;6.390;2024-02-28T05:48:57;3.50;99.90
20998;DHT22;10657;51.276;6.390;2024-02-28T05:51:23;3.50;99.90
20998;DHT22;10657;51.276;6.390;2024-02-28T05:53:50;3.70;99.90
20998;DHT22;10657;51.276;6.390;2024-02-28T05:56:17;3.50;99.90
20998;DHT22;10657;51.276;6.390;2024-02-28T05:58:47;3.60;99.90
20998;DHT22;10657;51.276;6.390;2024-02-28T06:01:17;3.60;99.90
20998;DHT22;10657;51.276;6.390;2024-02-28T06:03:46;3.40;99.90
20998;DHT22;10657;51.276;6.390;2024-02-28T06:06:13;3.20;99.90
20998;DHT22;10657;51.276;6.390;2024-02-28T06:08:41;3.30;99.90
20998;DHT22;10657;51.276;6.390;2024-02-28T06:11:08;3.10;99.90
20998;DHT22;10657;51.276;6.390;2024-02-28T06:13:35;3.30;99.90
20998;DHT22;10657;51.276;6.390;2024-02-28T06:16:04;3.20;99.90
20998;DHT22;10657;51.276;6.390;2024-02-28T06:18:31;3.10;99.90
20998;DHT22;10657;51.276;6.390;2024-02-28T06:21:00;3.30;99.90
20998;DHT22;10657;51.276;6.390;2024-02-28T06:23:27;3.20;99.90
20998;DHT22;10657;51.276;6.390;2024-02-28T06:25:56;2.90;99.90
20998;DHT22;10657;51.276;6.390;2024-02-28T06:28:23;3.20;99.90
20998;DHT22;10657;51.276;6.390;2024-02-28T06:30:50;3.30;99.90
20998;DHT22;10657;51.276;6.390;2024-02-28T06:33:17;3.00;99.90
20998;DHT22;10657;51.276;6.390;2024-02-28T06:35:45;3.20;99.90
20998;DHT22;10657;51.276;6.390;2024-02-28T06:38:12;3.40;99.90
20998;DHT22;10657;51.276;6.390;2024-02-28T06:40:38;3.50;99.90
20998;DHT22;10657;51.276;6.390;2024-02-28T06:43:05;3.70;99.90
20998;DHT22;10657;51.276;6.390;2024-02-28T06:45:32;3.70;99.90
20998;DHT22;10657;51.276;6.390;2024-02-28T06:47:59;3.80;99.90
20998;DHT22;10657;51.276;6.390;2024-02-28T06:50:26;3.90;99.90
20998;DHT22;10657;51.276;6.390;2024-02-28T06:52:52;3.70;99.90
20998;DHT22;10657;51.276;6.390;2024-02-28T06:55:20;3.70;99.90
20998;DHT22;10657;51.276;6.390;2024-02-28T06:57:47;3.50;99.90
20998;DHT22;10657;51.276;6.390;2024-02-28T07:00:14;3.50;99.90
20998;DHT22;10657;51.276;6.390;2024-02-28T07:02:42;3.60;99.90
20998;DHT22;10657;51.276;6.390;2024-02-28T07:05:09;3.80;99.90
20998;DHT22;10657;51.276;6.390;2024-02-28T07:07:36;4.00;99.90
20998;DHT22;10657;51.276;6.390;2024-02-28T07:10:06;3.90;99.90
20998;DHT22;10657;51.276;6.390;2024-02-28T07:12:33;4.00;99.90
20998;DHT22;10657;51.276;6.390;2024-02-28T07:15:00;4.00;99.90
20998;DHT22;10657;51.276;6.390;2024-02-28T07:17:26;4.00;99.90
20998;DHT22;10657;51.276;6.390;2024-02-28T07:19:53;3.90;99.90
20998;DHT22;10657;51.276;6.390;2024-02-28T07:22:20;4.20;99.90
20998;DHT22;10657;51.276;6.390;2024-02-28T07:24:48;4.00;99.90
20998;DHT22;10657;51.276;6.390;2024-02-28T07:27:15;4.00;99.90
20998;DHT22;10657;51.276;6.390;2024-02-28T07:29:42;3.90;99.90
20998;DHT22;10657;51.276;6.390;2024-02-28T07:32:10;3.90;99.90
20998;DHT22;10657;51.276;6.390;2024-02-28T07:34:37;3.90;99.90
20998;DHT22;10657;51.276;6.390;2024-02-28T07:37:03;3.80;99.90
20998;DHT22;10657;51.276;6.390;2024-02-28T07:39:30;3.90;99.90
20998;DHT22;10657;51.276;6.390;2024-02-28T07:41:57;4.10;99.90
20998;DHT22;10657;51.276;6.390;2024-02-28T07:44:24;4.10;99.90
20998;DHT22;10657;51.276;6.390;2024-02-28T07:46:50;4.20;99.90
20998;DHT22;10657;51.276;6.390;2024-02-28T07:49:18;4.30;99.90
20998;DHT22;10657;51.276;6.390;2024-02-28T07:51:45;4.30;99.90
20998;DHT22;10657;51.276;6.390;2024-02-28T07:54:12;4.40;99.90
20998;DHT22;10657;51.276;6.390;2024-02-28T07:56:39;4.60;99.90
20998;DHT22;10657;51.276;6.390;2024-02-28T07:59:06;4.40;99.90
20998;DHT22;10657;51.276;6.390;2024-02-28T08:01:33;4.50;99.90
20998;DHT22;10657;51.276;6.390;2024-02-28T08:04:00;4.50;99.90
20998;DHT22;10657;51.276;6.390;2024-02-28T08:06:28;4.60;99.90
20998;DHT22;10657;51.276;6.390;2024-02-28T08:08:55;4.60;99.90
20998;DHT22;10657;51.276;6.390;2024-02-28T08:11:22;4.70;99.90
20998;DHT22;10657;51.276;6.390;2024-02-28T08:13:50;4.80;99.90
20998;DHT22;10657;51.276;6.390;2024-02-28T08:16:16;4.70;99.90
20998;DHT22;10657;51.276;6.390;2024-02-28T08:18:43;4.90;99.90
20998;DHT22;10657;51.276;6.390;2024-02-28T08:21:11;4.80;99.90
20998;DHT22;10657;51.276;6.390;2024-02-28T08:23:37;5.00;99.90
20998;DHT22;10657;51.276;6.390;2024-02-28T08:26:04;4.90;99.90
20998;DHT22;10657;51.276;6.390;2024-02-28T08:28:31;4.80;99.90
20998;DHT22;10657;51.276;6.390;2024-02-28T08:30:58;4.90;99.90
20998;DHT22;10657;51.276;6.390;2024-02-28T08:33:25;4.70;99.90
20998;DHT22;10657;51.276;6.390;2024-02-28T08:35:52;4.70;99.90
20998;DHT22;10657;51.276;6.390;2024-02-28T08:38:20;4.70;99.90
20998;DHT22;10657;51.276;6.390;2024-02-28T08:40:47;4.70;99.90
20998;DHT22;10657;51.276;6.390;2024-02-28T08:43:13;4.90;99.90
20998;DHT22;10657;51.276;6.390;2024-02-28T08:45:40;5.10;99.90
20998;DHT22;10657;51.276;6.390;2024-02-28T08:48:07;4.80;99.90
20998;DHT22;10657;51.276;6.390;2024-02-28T08:50:34;5.00;99.90
20998;DHT22;10657;51.276;6.390;2024-02-28T08:53:02;5.10;99.90
20998;DHT22;10657;51.276;6.390;2024-02-28T08:55:29;5.20;99.90
20998;DHT22;10657;51.276;6.390;2024-02-28T08:57:56;5.20;99.90
20998;DHT22;10657;51.276;6.390;2024-02-28T09:00:23;5.30;99.90
20998;DHT22;10657;51.276;6.390;2024-02-28T09:02:50;5.40;99.90
20998;DHT22;10657;51.276;6.390;2024-02-28T09:05:17;5.50;99.90
20998;DHT22;10657;51.276;6.390;2024-02-28T09:07:44;5.00;99.90
20998;DHT22;10657;51.276;6.390;2024-02-28T09:10:10;5.10;99.90
20998;DHT22;10657;51.276;6.390;2024-02-28T09:12:37;5.20;99.90
20998;DHT22;10657;51.276;6.390;2024-02-28T09:15:05;5.20;99.90
20998;DHT22;10657;51.276;6.390;2024-02-28T09:17:32;5.30;99.90
20998;DHT22;10657;51.276;6.390;2024-02-28T09:19:59;5.10;99.90
20998;DHT22;10657;51.276;6.390;2024-02-28T09:22:27;5.10;99.90
20998;DHT22;10657;51.276;6.390;2024-02-28T09:24:54;5.20;99.90
20998;DHT22;10657;51.276;6.390;2024-02-28T09:27:21;5.10;99.90
20998;DHT22;10657;51.276;6.390;2024-02-28T09:29:48;4.90;99.90
20998;DHT22;10657;51.276;6.390;2024-02-28T09:32:15;5.00;99.90
20998;DHT22;10657;51.276;6.390;2024-02-28T09:34:41;5.20;99.90
20998;DHT22;10657;51.276;6.390;2024-02-28T09:37:08;5.40;99.90
20998;DHT22;10657;51.276;6.390;2024-02-28T09:39:38;5.70;99.90
20998;DHT22;10657;51.276;6.390;2024-02-28T09:42:09;5.70;99.90
20998;DHT22;10657;51.276;6.390;2024-02-28T09:44:36;5.80;99.90
20998;DHT22;10657;51.276;6.390;2024-02-28T09:47:03;5.60;99.90
20998;DHT22;10657;51.276;6.390;2024-02-28T09:49:31;5.80;99.90
20998;DHT22;10657;51.276;6.390;2024-02-28T09:51:58;5.70;99.90
20998;DHT22;10657;51.276;6.390;2024-02-28T09:54:26;5.90;99.90
20998;DHT22;10657;51.276;6.390;2024-02-28T09:56:52;6.00;99.90
20998;DHT22;10657;51.276;6.390;2024-02-28T09:59:20;5.80;99.90
20998;DHT22;10657;51.276;6.390;2024-02-28T10:01:57;6.00;99.90
20998;DHT22;10657;51.276;6.390;2024-02-28T10:04:27;6.00;99.90
20998;DHT22;10657;51.276;6.390;2024-02-28T10:06:57;6.20;99.90
20998;DHT22;10657;51.276;6.390;2024-02-28T10:09:24;6.10;99.90
20998;DHT22;10657;51.276;6.390;2024-02-28T10:11:50;5.80;99.90
20998;DHT22;10657;51.276;6.390;2024-02-28T10:14:18;5.90;99.90
20998;DHT22;10657;51.276;6.390;2024-02-28T10:16:45;5.80;99.90
20998;DHT22;10657;51.276;6.390;2024-02-28T10:19:12;6.00;99.90
20998;DHT22;10657;51.276;6.390;2024-02-28T10:21:39;6.10;99.90
20998;DHT22;10657;51.276;6.390;2024-02-28T10:24:06;6.10;99.90
20998;DHT22;10657;51.276;6.390;2024-02-28T10:26:41;6.00;99.90
20998;DHT22;10657;51.276;6.390;2024-02-28T10:29:08;6.10;99.90
20998;DHT22;10657;51.276;6.390;2024-02-28T10:31:37;6.30;99.90
20998;DHT22;10657;51.276;6.390;2024-02-28T10:34:04;6.20;99.90
20998;DHT22;10657;51.276;6.390;2024-02-28T10:36:32;6.20;99.90
20998;DHT22;10657;51.276;6.390;2024-02-28T10:39:00;6.30;99.90
20998;DHT22;10657;51.276;6.390;2024-02-28T10:41:28;6.30;99.90
20998;DHT22;10657;51.276;6.390;2024-02-28T10:43:55;6.20;99.90
20998;DHT22;10657;51.276;6.390;2024-02-28T10:46:22;6.30;99.90
20998;DHT22;10657;51.276;6.390;2024-02-28T10:48:52;6.20;99.90
20998;DHT22;10657;51.276;6.390;2024-02-28T10:51:24;6.30;99.90
20998;DHT22;10657;51.276;6.390;2024-02-28T10:54:11;6.50;99.90
20998;DHT22;10657;51.276;6.390;2024-02-28T10:56:41;6.50;99.90
20998;DHT22;10657;51.276;6.390;2024-02-28T10:59:10;6.60;99.90
20998;DHT22;10657;51.276;6.390;2024-02-28T11:01:42;6.60;99.90
20998;DHT22;10657;51.276;6.390;2024-02-28T11:04:11;6.70;99.90
20998;DHT22;10657;51.276;6.390;2024-02-28T11:06:51;6.50;99.90
20998;DHT22;10657;51.276;6.390;2024-02-28T11:09:23;6.40;99.90
20998;DHT22;10657;51.276;6.390;2024-02-28T11:11:50;6.50;99.90
20998;DHT22;10657;51.276;6.390;2024-02-28T11:14:18;6.60;99.90
20998;DHT22;10657;51.276;6.390;2024-02-28T11:17:05;6.80;99.90
20998;DHT22;10657;51.276;6.390;2024-02-28T11:19:33;7.00;99.90
20998;DHT22;10657;51.276;6.390;2024-02-28T11:22:02;7.00;99.90
20998;DHT22;10657;51.276;6.390;2024-02-28T11:24:32;7.00;99.90
20998;DHT22;10657;51.276;6.390;2024-02-28T11:27:00;6.90;99.90
20998;DHT22;10657;51.276;6.390;2024-02-28T11:29:29;7.00;99.90
20998;DHT22;10657;51.276;6.390;2024-02-28T11:31:56;7.10;99.90
20998;DHT22;10657;51.276;6.390;2024-02-28T11:34:23;7.20;99.90
20998;DHT22;10657;51.276;6.390;2024-02-28T11:36:50;7.30;99.90
20998;DHT22;10657;51.276;6.390;2024-02-28T11:39:17;7.40;99.90
20998;DHT22;10657;51.276;6.390;2024-02-28T11:41:45;7.40;99.90
20998;DHT22;10657;51.276;6.390;2024-02-28T11:44:16;7.30;99.90
20998;DHT22;10657;51.276;6.390;2024-02-28T11:46:47;7.50;99.90
20998;DHT22;10657;51.276;6.390;2024-02-28T11:49:15;7.60;99.90
20998;DHT22;10657;51.276;6.390;2024-02-28T11:51:42;7.70;99.90
20998;DHT22;10657;51.276;6.390;2024-02-28T11:54:10;7.80;99.90
20998;DHT22;10657;51.276;6.390;2024-02-28T11:56:38;7.50;99.90
20998;DHT22;10657;51.276;6.390;2024-02-28T11:59:08;7.50;99.90
20998;DHT22;10657;51.276;6.390;2024-02-28T12:01:41;7.50;99.90
20998;DHT22;10657;51.276;6.390;2024-02-28T12:04:10;7.60;99.90
20998;DHT22;10657;51.276;6.390;2024-02-28T12:06:37;7.80;99.90
20998;DHT22;10657;51.276;6.390;2024-02-28T12:09:06;7.90;99.90
20998;DHT22;10657;51.276;6.390;2024-02-28T12:11:36;8.00;99.90
20998;DHT22;10657;51.276;6.390;2024-02-28T12:14:04;7.90;99.90
20998;DHT22;10657;51.276;6.390;2024-02-28T12:16:31;8.10;99.90
20998;DHT22;10657;51.276;6.390;2024-02-28T12:18:58;8.20;99.90
20998;DHT22;10657;51.276;6.390;2024-02-28T12:21:25;8.40;99.90
20998;DHT22;10657;51.276;6.390;2024-02-28T12:23:51;8.60;99.90
20998;DHT22;10657;51.276;6.390;2024-02-28T12:26:18;8.60;99.90
20998;DHT22;10657;51.276;6.390;2024-02-28T12:28:46;8.80;99.90
20998;DHT22;10657;51.276;6.390;2024-02-28T12:31:13;8.90;99.90
20998;DHT22;10657;51.276;6.390;2024-02-28T12:33:40;9.00;99.90
20998;DHT22;10657;51.276;6.390;2024-02-28T12:36:07;8.80;99.90
20998;DHT22;10657;51.276;6.390;2024-02-28T12:38:34;8.90;99.90
20998;DHT22;10657;51.276;6.390;2024-02-28T12:41:01;9.00;99.90
20998;DHT22;10657;51.276;6.390;2024-02-28T12:43:29;8.90;99.90
20998;DHT22;10657;51.276;6.390;2024-02-28T12:45:56;9.20;99.90
20998;DHT22;10657;51.276;6.390;2024-02-28T12:48:23;9.40;99.90
20998;DHT22;10657;51.276;6.390;2024-02-28T12:50:50;9.50;99.90
20998;DHT22;10657;51.276;6.390;2024-02-28T12:53:17;9.40;99.90
20998;DHT22;10657;51.276;6.390;2024-02-28T12:55:43;9.40;99.90
20998;DHT22;10657;51.276;6.390;2024-02-28T12:58:13;9.60;99.90
20998;DHT22;10657;51.276;6.390;2024-02-28T13:00:39;9.70;99.90
20998;DHT22;10657;51.276;6.390;2024-02-28T13:03:06;9.70;99.90
20998;DHT22;10657;51.276;6.390;2024-02-28T13:05:33;9.70;99.90
20998;DHT22;10657;51.276;6.390;2024-02-28T13:08:00;9.80;99.90
20998;DHT22;10657;51.276;6.390;2024-02-28T13:10:27;9.60;99.90
20998;DHT22;10657;51.276;6.390;2024-02-28T13:12:53;9.80;99.90
20998;DHT22;10657;51.276;6.390;2024-02-28T13:15:20;9.90;99.90
20998;DHT22;10657;51.276;6.390;2024-02-28T13:17:47;10.00;99.90
20998;DHT22;10657;51.276;6.390;2024-02-28T13:20:16;9.90;99.90
20998;DHT22;10657;51.276;6.390;2024-02-28T13:22:43;9.90;99.90
20998;DHT22;10657;51.276;6.390;2024-02-28T13:25:11;9.90;99.90
20998;DHT22;10657;51.276;6.390;2024-02-28T13:27:38;9.80;99.90
20998;DHT22;10657;51.276;6.390;2024-02-28T13:30:05;10.00;99.90
20998;DHT22;10657;51.276;6.390;2024-02-28T13:32:32;10.00;99.90
20998;DHT22;10657;51.276;6.390;2024-02-28T13:34:59;10.00;99.90
20998;DHT22;10657;51.276;6.390;2024-02-28T13:37:26;10.20;99.90
20998;DHT22;10657;51.276;6.390;2024-02-28T13:39:53;10.30;99.90
20998;DHT22;10657;51.276;6.390;2024-02-28T13:42:20;10.30;99.90
20998;DHT22;10657;51.276;6.390;2024-02-28T13:44:47;10.30;99.90
20998;DHT22;10657;51.276;6.390;2024-02-28T13:47:14;10.40;99.90
20998;DHT22;10657;51.276;6.390;2024-02-28T13:49:41;10.20;99.90
20998;DHT22;10657;51.276;6.390;2024-02-28T13:52:08;10.40;99.90
20998;DHT22;10657;51.276;6.390;2024-02-28T13:54:34;10.50;99.90
20998;DHT22;10657;51.276;6.390;2024-02-28T13:57:02;10.50;99.90
20998;DHT22;10657;51.276;6.390;2024-02-28T13:59:32;10.50;99.90
20998;DHT22;10657;51.276;6.390;2024-02-28T14:01:59;10.70;99.90
20998;DHT22;10657;51.276;6.390;2024-02-28T14:04:27;10.60;99.90
20998;DHT22;10657;51.276;6.390;2024-02-28T14:06:53;10.50;99.90
20998;DHT22;10657;51.276;6.390;2024-02-28T14:09:20;10.30;99.90
20998;DHT22;10657;51.276;6.390;2024-02-28T14:11:47;10.20;99.90
20998;DHT22;10657;51.276;6.390;2024-02-28T14:14:13;10.30;99.90
20998;DHT22;10657;51.276;6.390;2024-02-28T14:16:40;10.30;99.90
20998;DHT22;10657;51.276;6.390;2024-02-28T14:19:07;10.30;99.90
20998;DHT22;10657;51.276;6.390;2024-02-28T14:21:33;10.30;99.90
20998;DHT22;10657;51.276;6.390;2024-02-28T14:24:00;10.40;99.90
20998;DHT22;10657;51.276;6.390;2024-02-28T14:26:27;10.40;99.90
20998;DHT22;10657;51.276;6.390;2024-02-28T14:28:54;10.40;99.90
20998;DHT22;10657;51.276;6.390;2024-02-28T14:31:22;10.40;99.90
20998;DHT22;10657;51.276;6.390;2024-02-28T14:33:50;10.60;99.90
20998;DHT22;10657;51.276;6.390;2024-02-28T14:36:16;10.80;99.90
20998;DHT22;10657;51.276;6.390;2024-02-28T14:38:43;10.90;99.90
20998;DHT22;10657;51.276;6.390;2024-02-28T14:41:11;10.90;99.90
20998;DHT22;10657;51.276;6.390;2024-02-28T14:43:38;11.00;99.90
20998;DHT22;10657;51.276;6.390;2024-02-28T14:46:05;10.80;99.90
20998;DHT22;10657;51.276;6.390;2024-02-28T14:48:33;10.70;99.90
20998;DHT22;10657;51.276;6.390;2024-02-28T14:51:00;10.60;99.90
20998;DHT22;10657;51.276;6.390;2024-02-28T14:53:28;10.60;99.90
20998;DHT22;10657;51.276;6.390;2024-02-28T14:55:55;10.50;99.90
20998;DHT22;10657;51.276;6.390;2024-02-28T14:58:22;10.50;99.90
20998;DHT22;10657;51.276;6.390;2024-02-28T15:00:49;10.50;99.90
20998;DHT22;10657;51.276;6.390;2024-02-28T15:03:16;10.40;99.90
20998;DHT22;10657;51.276;6.390;2024-02-28T15:05:43;10.40;99.90
20998;DHT22;10657;51.276;6.390;2024-02-28T15:08:10;10.30;99.90
20998;DHT22;10657;51.276;6.390;2024-02-28T15:10:37;10.30;99.90
20998;DHT22;10657;51.276;6.390;2024-02-28T15:13:04;10.40;99.90
20998;DHT22;10657;51.276;6.390;2024-02-28T15:15:32;10.40;99.90
20998;DHT22;10657;51.276;6.390;2024-02-28T15:17:59;10.40;99.90
20998;DHT22;10657;51.276;6.390;2024-02-28T15:20:28;10.40;99.90
20998;DHT22;10657;51.276;6.390;2024-02-28T15:22:54;10.30;99.90
20998;DHT22;10657;51.276;6.390;2024-02-28T15:25:21;10.30;99.90
20998;DHT22;10657;51.276;6.390;2024-02-28T15:27:48;10.20;99.90
20998;DHT22;10657;51.276;6.390;2024-02-28T15:30:15;10.20;99.90
20998;DHT22;10657;51.276;6.390;2024-02-28T15:32:42;10.10;99.90
20998;DHT22;10657;51.276;6.390;2024-02-28T15:35:10;10.10;99.90
20998;DHT22;10657;51.276;6.390;2024-02-28T15:37:37;10.10;99.90
20998;DHT22;10657;51.276;6.390;2024-02-28T15:40:05;10.10;99.90
20998;DHT22;10657;51.276;6.390;2024-02-28T15:42:33;10.20;99.90
20998;DHT22;10657;51.276;6.390;2024-02-28T15:45:00;10.20;99.90